sensor_id;sensor_type;location;lat;lon;timestamp;pressure;altitude;pressure_sealevel;temperature
9985;BMP180;16737;50.932;6.780;2023-12-07T00:01:07;100528.00;;;7.30
9985;BMP180;16737;50.932;6.780;2023-12-07T00:03:34;100533.00;;;7.30
9985;BMP180;16737;50.932;6.780;2023-12-07T00:06:01;100533.00;;;7.30
9985;BMP180;16737;50.932;6.780;2023-12-07T00:08:29;100515.00;;;7.30
9985;BMP180;16737;50.932;6.780;2023-12-07T00:10:58;100529.00;;;7.30
9985;BMP180;16737;50.932;6.780;2023-12-07T00:13:25;100531.00;;;7.30
9985;BMP180;16737;50.932;6.780;2023-12-07T00:15:52;100516.00;;;7.40
9985;BMP180;16737;50.932;6.780;2023-12-07T00:18:19;100513.00;;;7.40
9985;BMP180;16737;50.932;6.780;2023-12-07T00:20:46;100517.00;;;7.40
9985;BMP180;16737;50.932;6.780;2023-12-07T00:23:13;100534.00;;;7.40
9985;BMP180;16737;50.932;6.780;2023-12-07T00:25:40;100528.00;;;7.40
9985;BMP180;16737;50.932;6.780;2023-12-07T00:28:09;100513.00;;;7.40
9985;BMP180;16737;50.932;6.780;2023-12-07T00:30:36;100527.00;;;7.50
9985;BMP180;16737;50.932;6.780;2023-12-07T00:33:03;100523.00;;;7.50
9985;BMP180;16737;50.932;6.780;2023-12-07T00:35:29;100530.00;;;7.50
9985;BMP180;16737;50.932;6.780;2023-12-07T00:37:56;100523.00;;;7.50
9985;BMP180;16737;50.932;6.780;2023-12-07T00:40:23;100516.00;;;7.50
9985;BMP180;16737;50.932;6.780;2023-12-07T00:42:51;100526.00;;;7.50
9985;BMP180;16737;50.932;6.780;2023-12-07T00:45:19;100523.00;;;7.50
9985;BMP180;16737;50.932;6.780;2023-12-07T00:47:46;100522.00;;;7.60
9985;BMP180;16737;50.932;6.780;2023-12-07T00:50:14;100521.00;;;7.60
9985;BMP180;16737;50.932;6.780;2023-12-07T00:52:41;100521.00;;;7.60
9985;BMP180;16737;50.932;6.780;2023-12-07T00:55:08;100504.00;;;7.60
9985;BMP180;16737;50.932;6.780;2023-12-07T00:57:36;100515.00;;;7.60
9985;BMP180;16737;50.932;6.780;2023-12-07T01:00:04;100515.00;;;7.60
9985;BMP180;16737;50.932;6.780;2023-12-07T01:02:33;100516.00;;;7.60
9985;BMP180;16737;50.932;6.780;2023-12-07T01:05:01;100520.00;;;7.70
9985;BMP180;16737;50.932;6.780;2023-12-07T01:07:28;100519.00;;;7.60
9985;BMP180;16737;50.932;6.780;2023-12-07T01:09:55;100525.00;;;7.70
9985;BMP180;16737;50.932;6.780;2023-12-07T01:12:22;100507.00;;;7.70
9985;BMP180;16737;50.932;6.780;2023-12-07T01:14:49;100531.00;;;7.70
9985;BMP180;16737;50.932;6.780;2023-12-07T01:17:16;100527.00;;;7.70
9985;BMP180;16737;50.932;6.780;2023-12-07T01:19:45;100532.00;;;7.70
9985;BMP180;16737;50.932;6.780;2023-12-07T01:22:11;100525.00;;;7.60
9985;BMP180;16737;50.932;6.780;2023-12-07T01:24:39;100529.00;;;7.70
9985;BMP180;16737;50.932;6.780;2023-12-07T01:27:06;100528.00;;;7.70
9985;BMP180;16737;50.932;6.780;2023-12-07T01:29:33;100526.00;;;7.70
9985;BMP180;16737;50.932;6.780;2023-12-07T01:32:00;100534.00;;;7.70
9985;BMP180;16737;50.932;6.780;2023-12-07T01:34:27;100526.00;;;7.70
9985;BMP180;16737;50.932;6.780;2023-12-07T01:36:55;100539.00;;;7.70
9985;BMP180;16737;50.932;6.780;2023-12-07T01:39:22;100541.00;;;7.70
9985;BMP180;16737;50.932;6.780;2023-12-07T01:41:50;100539.00;;;7.70
9985;BMP180;16737;50.932;6.780;2023-12-07T01:44:17;100539.00;;;7.70
9985;BMP180;16737;50.932;6.780;2023-12-07T01:46:46;100548.00;;;7.70
9985;BMP180;16737;50.932;6.780;2023-12-07T01:49:13;100533.00;;;7.70
9985;BMP180;16737;50.932;6.780;2023-12-07T01:51:42;100553.00;;;7.60
9985;BMP180;16737;50.932;6.780;2023-12-07T01:54:10;100556.00;;;7.60
9985;BMP180;16737;50.932;6.780;2023-12-07T01:56:37;100560.00;;;7.60
9985;BMP180;16737;50.932;6.780;2023-12-07T01:59:04;100563.00;;;7.60
9985;BMP180;16737;50.932;6.780;2023-12-07T02:01:32;100553.00;;;7.60
9985;BMP180;16737;50.932;6.780;2023-12-07T02:03:59;100550.00;;;7.60
9985;BMP180;16737;50.932;6.780;2023-12-07T02:06:26;100541.00;;;7.60
9985;BMP180;16737;50.932;6.780;2023-12-07T02:08:54;100558.00;;;7.60
9985;BMP180;16737;50.932;6.780;2023-12-07T02:11:23;100564.00;;;7.60
9985;BMP180;16737;50.932;6.780;2023-12-07T02:13:50;100560.00;;;7.60
9985;BMP180;16737;50.932;6.780;2023-12-07T02:16:30;100564.00;;;7.50
9985;BMP180;16737;50.932;6.780;2023-12-07T02:19:12;100569.00;;;7.50
9985;BMP180;16737;50.932;6.780;2023-12-07T02:21:50;100549.00;;;7.50
9985;BMP180;16737;50.932;6.780;2023-12-07T02:24:22;100569.00;;;7.40
9985;BMP180;16737;50.932;6.780;2023-12-07T02:26:54;100566.00;;;7.40
9985;BMP180;16737;50.932;6.780;2023-12-07T02:29:21;100580.00;;;7.40
9985;BMP180;16737;50.932;6.780;2023-12-07T02:31:48;100580.00;;;7.30
9985;BMP180;16737;50.932;6.780;2023-12-07T02:34:15;100583.00;;;7.30
9985;BMP180;16737;50.932;6.780;2023-12-07T02:36:45;100556.00;;;7.30
9985;BMP180;16737;50.932;6.780;2023-12-07T02:39:13;100580.00;;;7.30
9985;BMP180;16737;50.932;6.780;2023-12-07T02:41:41;100563.00;;;7.30
9985;BMP180;16737;50.932;6.780;2023-12-07T02:44:10;100575.00;;;7.20
9985;BMP180;16737;50.932;6.780;2023-12-07T02:46:37;100574.00;;;7.20
9985;BMP180;16737;50.932;6.780;2023-12-07T02:49:05;100576.00;;;7.20
9985;BMP180;16737;50.932;6.780;2023-12-07T02:51:32;100567.00;;;7.20
9985;BMP180;16737;50.932;6.780;2023-12-07T02:53:59;100559.00;;;7.10
9985;BMP180;16737;50.932;6.780;2023-12-07T02:56:26;100552.00;;;7.10
9985;BMP180;16737;50.932;6.780;2023-12-07T02:58:53;100547.00;;;7.10
9985;BMP180;16737;50.932;6.780;2023-12-07T03:01:22;100563.00;;;7.10
9985;BMP180;16737;50.932;6.780;2023-12-07T03:03:49;100561.00;;;7.10
9985;BMP180;16737;50.932;6.780;2023-12-07T03:06:16;100562.00;;;7.00
9985;BMP180;16737;50.932;6.780;2023-12-07T03:08:45;100554.00;;;7.00
9985;BMP180;16737;50.932;6.780;2023-12-07T03:11:12;100563.00;;;7.00
9985;BMP180;16737;50.932;6.780;2023-12-07T03:13:39;100549.00;;;6.90
9985;BMP180;16737;50.932;6.780;2023-12-07T03:16:08;100550.00;;;6.90
9985;BMP180;16737;50.932;6.780;2023-12-07T03:18:37;100557.00;;;6.80
9985;BMP180;16737;50.932;6.780;2023-12-07T03:21:04;100553.00;;;6.80
9985;BMP180;16737;50.932;6.780;2023-12-07T03:23:32;100556.00;;;6.80
9985;BMP180;16737;50.932;6.780;2023-12-07T03:25:58;100559.00;;;6.70
9985;BMP180;16737;50.932;6.780;2023-12-07T03:28:25;100552.00;;;6.70
9985;BMP180;16737;50.932;6.780;2023-12-07T03:30:52;100541.00;;;6.60
9985;BMP180;16737;50.932;6.780;2023-12-07T03:33:19;100553.00;;;6.60
9985;BMP180;16737;50.932;6.780;2023-12-07T03:35:47;100559.00;;;6.50
9985;BMP180;16737;50.932;6.780;2023-12-07T03:38:15;100554.00;;;6.50
9985;BMP180;16737;50.932;6.780;2023-12-07T03:40:42;100546.00;;;6.50
9985;BMP180;16737;50.932;6.780;2023-12-07T03:43:13;100553.00;;;6.50
9985;BMP180;16737;50.932;6.780;2023-12-07T03:45:40;100553.00;;;6.40
9985;BMP180;16737;50.932;6.780;2023-12-07T03:48:07;100547.00;;;6.40
9985;BMP180;16737;50.932;6.780;2023-12-07T03:50:34;100536.00;;;6.40
9985;BMP180;16737;50.932;6.780;2023-12-07T03:53:02;100543.00;;;6.30
9985;BMP180;16737;50.932;6.780;2023-12-07T03:55:29;100534.00;;;6.30
9985;BMP180;16737;50.932;6.780;2023-12-07T03:57:57;100546.00;;;6.20
9985;BMP180;16737;50.932;6.780;2023-12-07T04:00:24;100542.00;;;6.20
9985;BMP180;16737;50.932;6.780;2023-12-07T04:02:51;100537.00;;;6.20
9985;BMP180;16737;50.932;6.780;2023-12-07T04:05:18;100539.00;;;6.10
9985;BMP180;16737;50.932;6.780;2023-12-07T04:07:45;100514.00;;;6.10
9985;BMP180;16737;50.932;6.780;2023-12-07T04:10:14;100542.00;;;6.10
9985;BMP180;16737;50.932;6.780;2023-12-07T04:12:41;100540.00;;;6.10
9985;BMP180;16737;50.932;6.780;2023-12-07T04:15:09;100541.00;;;6.10
9985;BMP180;16737;50.932;6.780;2023-12-07T04:17:36;100535.00;;;6.10
9985;BMP180;16737;50.932;6.780;2023-12-07T04:20:04;100539.00;;;6.00
9985;BMP180;16737;50.932;6.780;2023-12-07T04:22:33;100542.00;;;6.00
9985;BMP180;16737;50.932;6.780;2023-12-07T04:25:00;100536.00;;;6.00
9985;BMP180;16737;50.932;6.780;2023-12-07T04:27:28;100538.00;;;6.00
9985;BMP180;16737;50.932;6.780;2023-12-07T04:29:55;100559.00;;;6.00
9985;BMP180;16737;50.932;6.780;2023-12-07T04:32:23;100553.00;;;6.00
9985;BMP180;16737;50.932;6.780;2023-12-07T04:34:51;100556.00;;;6.00
9985;BMP180;16737;50.932;6.780;2023-12-07T04:37:18;100560.00;;;5.90
9985;BMP180;16737;50.932;6.780;2023-12-07T04:39:45;100557.00;;;5.90
9985;BMP180;16737;50.932;6.780;2023-12-07T04:42:12;100559.00;;;5.80
9985;BMP180;16737;50.932;6.780;2023-12-07T04:44:40;100567.00;;;5.80
9985;BMP180;16737;50.932;6.780;2023-12-07T04:47:07;100563.00;;;5.80
9985;BMP180;16737;50.932;6.780;2023-12-07T04:49:34;100552.00;;;5.80
9985;BMP180;16737;50.932;6.780;2023-12-07T04:52:01;100564.00;;;5.80
9985;BMP180;16737;50.932;6.780;2023-12-07T04:54:28;100569.00;;;5.80
9985;BMP180;16737;50.932;6.780;2023-12-07T04:56:55;100575.00;;;5.80
9985;BMP180;16737;50.932;6.780;2023-12-07T04:59:22;100581.00;;;5.80
9985;BMP180;16737;50.932;6.780;2023-12-07T05:01:50;100578.00;;;5.80
9985;BMP180;16737;50.932;6.780;2023-12-07T05:04:17;100587.00;;;5.90
9985;BMP180;16737;50.932;6.780;2023-12-07T05:06:44;100590.00;;;5.90
9985;BMP180;16737;50.932;6.780;2023-12-07T05:09:12;100586.00;;;5.90
9985;BMP180;16737;50.932;6.780;2023-12-07T05:11:39;100586.00;;;5.90
9985;BMP180;16737;50.932;6.780;2023-12-07T05:14:06;100579.00;;;5.90
9985;BMP180;16737;50.932;6.780;2023-12-07T05:16:33;100587.00;;;5.90
9985;BMP180;16737;50.932;6.780;2023-12-07T05:19:03;100591.00;;;5.90
9985;BMP180;16737;50.932;6.780;2023-12-07T05:21:31;100589.00;;;5.90
9985;BMP180;16737;50.932;6.780;2023-12-07T05:23:58;100594.00;;;5.90
9985;BMP180;16737;50.932;6.780;2023-12-07T05:26:25;100588.00;;;5.90
9985;BMP180;16737;50.932;6.780;2023-12-07T05:28:52;100588.00;;;5.90
9985;BMP180;16737;50.932;6.780;2023-12-07T05:31:19;100596.00;;;5.90
9985;BMP180;16737;50.932;6.780;2023-12-07T05:33:46;100596.00;;;6.00
9985;BMP180;16737;50.932;6.780;2023-12-07T05:36:14;100600.00;;;6.00
9985;BMP180;16737;50.932;6.780;2023-12-07T05:38:41;100600.00;;;6.00
9985;BMP180;16737;50.932;6.780;2023-12-07T05:41:09;100601.00;;;6.00
9985;BMP180;16737;50.932;6.780;2023-12-07T05:43:40;100603.00;;;5.90
9985;BMP180;16737;50.932;6.780;2023-12-07T05:46:07;100621.00;;;5.90
9985;BMP180;16737;50.932;6.780;2023-12-07T05:48:34;100599.00;;;5.90
9985;BMP180;16737;50.932;6.780;2023-12-07T05:51:02;100581.00;;;5.90
9985;BMP180;16737;50.932;6.780;2023-12-07T05:53:31;100576.00;;;5.80
9985;BMP180;16737;50.932;6.780;2023-12-07T05:55:58;100578.00;;;5.80
9985;BMP180;16737;50.932;6.780;2023-12-07T05:58:25;100575.00;;;5.80
9985;BMP180;16737;50.932;6.780;2023-12-07T06:00:53;100582.00;;;5.80
9985;BMP180;16737;50.932;6.780;2023-12-07T06:03:20;100581.00;;;5.80
9985;BMP180;16737;50.932;6.780;2023-12-07T06:05:47;100574.00;;;5.80
9985;BMP180;16737;50.932;6.780;2023-12-07T06:08:15;100570.00;;;5.80
9985;BMP180;16737;50.932;6.780;2023-12-07T06:10:43;100569.00;;;5.80
9985;BMP180;16737;50.932;6.780;2023-12-07T06:13:10;100561.00;;;5.80
9985;BMP180;16737;50.932;6.780;2023-12-07T06:15:37;100568.00;;;5.80
9985;BMP180;16737;50.932;6.780;2023-12-07T06:18:04;100556.00;;;5.80
9985;BMP180;16737;50.932;6.780;2023-12-07T06:20:31;100553.00;;;5.80
9985;BMP180;16737;50.932;6.780;2023-12-07T06:22:59;100568.00;;;5.80
9985;BMP180;16737;50.932;6.780;2023-12-07T06:25:26;100551.00;;;5.70
9985;BMP180;16737;50.932;6.780;2023-12-07T06:27:54;100564.00;;;5.70
9985;BMP180;16737;50.932;6.780;2023-12-07T06:30:22;100567.00;;;5.70
9985;BMP180;16737;50.932;6.780;2023-12-07T06:32:50;100563.00;;;5.70
9985;BMP180;16737;50.932;6.780;2023-12-07T06:35:17;100556.00;;;5.70
9985;BMP180;16737;50.932;6.780;2023-12-07T06:37:44;100553.00;;;5.70
9985;BMP180;16737;50.932;6.780;2023-12-07T06:40:12;100557.00;;;5.70
9985;BMP180;16737;50.932;6.780;2023-12-07T06:42:39;100540.00;;;5.70
9985;BMP180;16737;50.932;6.780;2023-12-07T06:45:09;100549.00;;;5.70
9985;BMP180;16737;50.932;6.780;2023-12-07T06:47:38;100551.00;;;5.70
9985;BMP180;16737;50.932;6.780;2023-12-07T06:50:06;100552.00;;;5.70
9985;BMP180;16737;50.932;6.780;2023-12-07T06:52:35;100544.00;;;5.70
9985;BMP180;16737;50.932;6.780;2023-12-07T06:55:03;100550.00;;;5.70
9985;BMP180;16737;50.932;6.780;2023-12-07T06:57:30;100548.00;;;5.70
9985;BMP180;16737;50.932;6.780;2023-12-07T06:59:57;100545.00;;;5.70
9985;BMP180;16737;50.932;6.780;2023-12-07T07:02:26;100546.00;;;5.60
9985;BMP180;16737;50.932;6.780;2023-12-07T07:04:53;100552.00;;;5.60
9985;BMP180;16737;50.932;6.780;2023-12-07T07:07:20;100542.00;;;5.60
9985;BMP180;16737;50.932;6.780;2023-12-07T07:09:47;100542.00;;;5.60
9985;BMP180;16737;50.932;6.780;2023-12-07T07:12:16;100547.00;;;5.60
9985;BMP180;16737;50.932;6.780;2023-12-07T07:14:43;100551.00;;;5.60
9985;BMP180;16737;50.932;6.780;2023-12-07T07:17:10;100546.00;;;5.60
9985;BMP180;16737;50.932;6.780;2023-12-07T07:19:38;100539.00;;;5.60
9985;BMP180;16737;50.932;6.780;2023-12-07T07:22:05;100553.00;;;5.60
9985;BMP180;16737;50.932;6.780;2023-12-07T07:24:32;100560.00;;;5.60
9985;BMP180;16737;50.932;6.780;2023-12-07T07:26:59;100563.00;;;5.60
9985;BMP180;16737;50.932;6.780;2023-12-07T07:29:26;100559.00;;;5.60
9985;BMP180;16737;50.932;6.780;2023-12-07T07:31:53;100562.00;;;5.60
9985;BMP180;16737;50.932;6.780;2023-12-07T07:34:21;100543.00;;;5.50
9985;BMP180;16737;50.932;6.780;2023-12-07T07:36:49;100561.00;;;5.50
9985;BMP180;16737;50.932;6.780;2023-12-07T07:39:18;100558.00;;;5.50
9985;BMP180;16737;50.932;6.780;2023-12-07T07:41:45;100555.00;;;5.50
9985;BMP180;16737;50.932;6.780;2023-12-07T07:44:12;100554.00;;;5.40
9985;BMP180;16737;50.932;6.780;2023-12-07T07:46:40;100546.00;;;5.50
9985;BMP180;16737;50.932;6.780;2023-12-07T07:49:07;100554.00;;;5.50
9985;BMP180;16737;50.932;6.780;2023-12-07T07:51:34;100553.00;;;5.50
9985;BMP180;16737;50.932;6.780;2023-12-07T07:54:03;100539.00;;;5.50
9985;BMP180;16737;50.932;6.780;2023-12-07T07:56:30;100549.00;;;5.50
9985;BMP180;16737;50.932;6.780;2023-12-07T07:58:57;100563.00;;;5.50
9985;BMP180;16737;50.932;6.780;2023-12-07T08:01:26;100550.00;;;5.50
9985;BMP180;16737;50.932;6.780;2023-12-07T08:03:53;100556.00;;;5.50
9985;BMP180;16737;50.932;6.780;2023-12-07T08:06:21;100552.00;;;5.50
9985;BMP180;16737;50.932;6.780;2023-12-07T08:08:48;100547.00;;;5.60
9985;BMP180;16737;50.932;6.780;2023-12-07T08:11:18;100552.00;;;5.60
9985;BMP180;16737;50.932;6.780;2023-12-07T08:13:45;100561.00;;;5.60
9985;BMP180;16737;50.932;6.780;2023-12-07T08:16:12;100568.00;;;5.60
9985;BMP180;16737;50.932;6.780;2023-12-07T08:18:39;100557.00;;;5.70
9985;BMP180;16737;50.932;6.780;2023-12-07T08:21:06;100564.00;;;5.70
9985;BMP180;16737;50.932;6.780;2023-12-07T08:23:34;100559.00;;;5.80
9985;BMP180;16737;50.932;6.780;2023-12-07T08:26:01;100545.00;;;5.80
9985;BMP180;16737;50.932;6.780;2023-12-07T08:28:30;100555.00;;;5.90
9985;BMP180;16737;50.932;6.780;2023-12-07T08:30:57;100563.00;;;5.90
9985;BMP180;16737;50.932;6.780;2023-12-07T08:33:24;100565.00;;;6.00
9985;BMP180;16737;50.932;6.780;2023-12-07T08:35:51;100567.00;;;6.00
9985;BMP180;16737;50.932;6.780;2023-12-07T08:38:20;100566.00;;;6.00
9985;BMP180;16737;50.932;6.780;2023-12-07T08:40:48;100568.00;;;6.00
9985;BMP180;16737;50.932;6.780;2023-12-07T08:43:15;100571.00;;;6.00
9985;BMP180;16737;50.932;6.780;2023-12-07T08:45:44;100566.00;;;6.00
9985;BMP180;16737;50.932;6.780;2023-12-07T08:48:11;100567.00;;;6.00
9985;BMP180;16737;50.932;6.780;2023-12-07T08:50:38;100562.00;;;6.10
9985;BMP180;16737;50.932;6.780;2023-12-07T08:53:06;100570.00;;;6.10
9985;BMP180;16737;50.932;6.780;2023-12-07T08:55:33;100569.00;;;6.20
9985;BMP180;16737;50.932;6.780;2023-12-07T08:58:00;100578.00;;;6.20
9985;BMP180;16737;50.932;6.780;2023-12-07T09:00:30;100563.00;;;6.20
9985;BMP180;16737;50.932;6.780;2023-12-07T09:02:59;100565.00;;;6.30
9985;BMP180;16737;50.932;6.780;2023-12-07T09:05:28;100568.00;;;6.30
9985;BMP180;16737;50.932;6.780;2023-12-07T09:07:56;100574.00;;;6.30
9985;BMP180;16737;50.932;6.780;2023-12-07T09:10:23;100564.00;;;6.30
9985;BMP180;16737;50.932;6.780;2023-12-07T09:12:50;100563.00;;;6.40
9985;BMP180;16737;50.932;6.780;2023-12-07T09:15:17;100564.00;;;6.40
9985;BMP180;16737;50.932;6.780;2023-12-07T09:17:44;100565.00;;;6.40
9985;BMP180;16737;50.932;6.780;2023-12-07T09:20:12;100558.00;;;6.40
9985;BMP180;16737;50.932;6.780;2023-12-07T09:22:42;100559.00;;;6.40
9985;BMP180;16737;50.932;6.780;2023-12-07T09:25:10;100552.00;;;6.40
9985;BMP180;16737;50.932;6.780;2023-12-07T09:27:37;100548.00;;;6.40
9985;BMP180;16737;50.932;6.780;2023-12-07T09:30:05;100541.00;;;6.50
9985;BMP180;16737;50.932;6.780;2023-12-07T09:32:36;100546.00;;;6.50
9985;BMP180;16737;50.932;6.780;2023-12-07T09:35:05;100558.00;;;6.50
9985;BMP180;16737;50.932;6.780;2023-12-07T09:37:34;100559.00;;;6.50
9985;BMP180;16737;50.932;6.780;2023-12-07T09:40:01;100566.00;;;6.50
9985;BMP180;16737;50.932;6.780;2023-12-07T09:42:31;100571.00;;;6.60
9985;BMP180;16737;50.932;6.780;2023-12-07T09:44:59;100570.00;;;6.60
9985;BMP180;16737;50.932;6.780;2023-12-07T09:47:28;100561.00;;;6.60
9985;BMP180;16737;50.932;6.780;2023-12-07T09:49:59;100535.00;;;6.60
9985;BMP180;16737;50.932;6.780;2023-12-07T09:52:26;100568.00;;;6.70
9985;BMP180;16737;50.932;6.780;2023-12-07T09:54:57;100566.00;;;6.70
9985;BMP180;16737;50.932;6.780;2023-12-07T09:57:24;100567.00;;;6.70
9985;BMP180;16737;50.932;6.780;2023-12-07T09:59:51;100567.00;;;6.70
9985;BMP180;16737;50.932;6.780;2023-12-07T10:02:19;100569.00;;;6.70
9985;BMP180;16737;50.932;6.780;2023-12-07T10:04:46;100567.00;;;6.70
9985;BMP180;16737;50.932;6.780;2023-12-07T10:07:14;100561.00;;;6.70
9985;BMP180;16737;50.932;6.780;2023-12-07T10:09:41;100563.00;;;6.80
9985;BMP180;16737;50.932;6.780;2023-12-07T10:12:09;100558.00;;;6.80
9985;BMP180;16737;50.932;6.780;2023-12-07T10:14:38;100546.00;;;6.80
9985;BMP180;16737;50.932;6.780;2023-12-07T10:17:05;100561.00;;;6.90
9985;BMP180;16737;50.932;6.780;2023-12-07T10:19:32;100542.00;;;6.90
9985;BMP180;16737;50.932;6.780;2023-12-07T10:22:12;100536.00;;;6.90
9985;BMP180;16737;50.932;6.780;2023-12-07T10:24:39;100539.00;;;7.00
9985;BMP180;16737;50.932;6.780;2023-12-07T10:27:09;100527.00;;;7.00
9985;BMP180;16737;50.932;6.780;2023-12-07T10:29:38;100528.00;;;7.00
9985;BMP180;16737;50.932;6.780;2023-12-07T10:32:06;100524.00;;;7.10
9985;BMP180;16737;50.932;6.780;2023-12-07T10:34:34;100501.00;;;7.20
9985;BMP180;16737;50.932;6.780;2023-12-07T10:37:02;100505.00;;;7.20
9985;BMP180;16737;50.932;6.780;2023-12-07T10:39:30;100515.00;;;7.30
9985;BMP180;16737;50.932;6.780;2023-12-07T10:42:02;100505.00;;;7.30
9985;BMP180;16737;50.932;6.780;2023-12-07T10:44:41;100481.00;;;7.30
9985;BMP180;16737;50.932;6.780;2023-12-07T10:47:10;100489.00;;;7.40
9985;BMP180;16737;50.932;6.780;2023-12-07T10:49:40;100486.00;;;7.40
9985;BMP180;16737;50.932;6.780;2023-12-07T10:52:13;100480.00;;;7.40
9985;BMP180;16737;50.932;6.780;2023-12-07T10:54:50;100471.00;;;7.50
9985;BMP180;16737;50.932;6.780;2023-12-07T10:57:20;100466.00;;;7.50
9985;BMP180;16737;50.932;6.780;2023-12-07T10:59:52;100469.00;;;7.60
9985;BMP180;16737;50.932;6.780;2023-12-07T11:02:21;100461.00;;;7.60
9985;BMP180;16737;50.932;6.780;2023-12-07T11:04:50;100463.00;;;7.60
9985;BMP180;16737;50.932;6.780;2023-12-07T11:07:21;100448.00;;;7.70
9985;BMP180;16737;50.932;6.780;2023-12-07T11:10:10;100452.00;;;7.70
9985;BMP180;16737;50.932;6.780;2023-12-07T11:12:48;100443.00;;;7.70
9985;BMP180;16737;50.932;6.780;2023-12-07T11:15:18;100437.00;;;7.80
9985;BMP180;16737;50.932;6.780;2023-12-07T11:17:54;100434.00;;;7.80
9985;BMP180;16737;50.932;6.780;2023-12-07T11:20:31;100438.00;;;7.90
9985;BMP180;16737;50.932;6.780;2023-12-07T11:22:59;100438.00;;;7.90
9985;BMP180;16737;50.932;6.780;2023-12-07T11:25:26;100436.00;;;7.90
9985;BMP180;16737;50.932;6.780;2023-12-07T11:28:00;100420.00;;;7.80
9985;BMP180;16737;50.932;6.780;2023-12-07T11:30:31;100409.00;;;7.90
9985;BMP180;16737;50.932;6.780;2023-12-07T11:32:59;100415.00;;;7.90
9985;BMP180;16737;50.932;6.780;2023-12-07T11:35:26;100414.00;;;7.90
9985;BMP180;16737;50.932;6.780;2023-12-07T11:38:05;100409.00;;;7.90
9985;BMP180;16737;50.932;6.780;2023-12-07T11:40:35;100408.00;;;7.90
9985;BMP180;16737;50.932;6.780;2023-12-07T11:43:03;100407.00;;;8.00
9985;BMP180;16737;50.932;6.780;2023-12-07T11:45:40;100409.00;;;8.00
9985;BMP180;16737;50.932;6.780;2023-12-07T11:48:12;100409.00;;;8.10
9985;BMP180;16737;50.932;6.780;2023-12-07T11:50:59;100397.00;;;8.00
9985;BMP180;16737;50.932;6.780;2023-12-07T11:53:28;100405.00;;;8.10
9985;BMP180;16737;50.932;6.780;2023-12-07T11:55:57;100393.00;;;8.20
9985;BMP180;16737;50.932;6.780;2023-12-07T11:58:25;100403.00;;;8.20
9985;BMP180;16737;50.932;6.780;2023-12-07T12:00:54;100402.00;;;8.20
9985;BMP180;16737;50.932;6.780;2023-12-07T12:03:22;100384.00;;;8.20
9985;BMP180;16737;50.932;6.780;2023-12-07T12:05:50;100389.00;;;8.30
9985;BMP180;16737;50.932;6.780;2023-12-07T12:08:18;100371.00;;;8.30
9985;BMP180;16737;50.932;6.780;2023-12-07T12:10:48;100389.00;;;8.40
9985;BMP180;16737;50.932;6.780;2023-12-07T12:13:18;100391.00;;;8.40
9985;BMP180;16737;50.932;6.780;2023-12-07T12:15:45;100391.00;;;8.40
9985;BMP180;16737;50.932;6.780;2023-12-07T12:18:17;100394.00;;;8.40
9985;BMP180;16737;50.932;6.780;2023-12-07T12:20:45;100395.00;;;8.40
9985;BMP180;16737;50.932;6.780;2023-12-07T12:23:13;100391.00;;;8.40
9985;BMP180;16737;50.932;6.780;2023-12-07T12:25:41;100376.00;;;8.40
9985;BMP180;16737;50.932;6.780;2023-12-07T12:28:09;100388.00;;;8.50
9985;BMP180;16737;50.932;6.780;2023-12-07T12:30:38;100379.00;;;8.50
9985;BMP180;16737;50.932;6.780;2023-12-07T12:33:05;100368.00;;;8.50
9985;BMP180;16737;50.932;6.780;2023-12-07T12:35:34;100343.00;;;8.60
9985;BMP180;16737;50.932;6.780;2023-12-07T12:38:01;100340.00;;;8.60
9985;BMP180;16737;50.932;6.780;2023-12-07T12:40:31;100338.00;;;8.60
9985;BMP180;16737;50.932;6.780;2023-12-07T12:42:58;100336.00;;;8.70
9985;BMP180;16737;50.932;6.780;2023-12-07T12:45:26;100340.00;;;8.70
9985;BMP180;16737;50.932;6.780;2023-12-07T12:47:53;100348.00;;;8.80
9985;BMP180;16737;50.932;6.780;2023-12-07T12:50:36;100334.00;;;8.70
9985;BMP180;16737;50.932;6.780;2023-12-07T12:53:05;100326.00;;;8.70
9985;BMP180;16737;50.932;6.780;2023-12-07T12:55:35;100333.00;;;8.80
9985;BMP180;16737;50.932;6.780;2023-12-07T12:58:03;100315.00;;;8.80
9985;BMP180;16737;50.932;6.780;2023-12-07T13:00:31;100315.00;;;8.80
9985;BMP180;16737;50.932;6.780;2023-12-07T13:03:00;100311.00;;;8.70
9985;BMP180;16737;50.932;6.780;2023-12-07T13:05:27;100311.00;;;8.70
9985;BMP180;16737;50.932;6.780;2023-12-07T13:07:55;100305.00;;;8.70
9985;BMP180;16737;50.932;6.780;2023-12-07T13:10:22;100301.00;;;8.60
9985;BMP180;16737;50.932;6.780;2023-12-07T13:12:54;100289.00;;;8.70
9985;BMP180;16737;50.932;6.780;2023-12-07T13:15:22;100291.00;;;8.60
9985;BMP180;16737;50.932;6.780;2023-12-07T13:17:51;100293.00;;;8.60
9985;BMP180;16737;50.932;6.780;2023-12-07T13:20:18;100281.00;;;8.60
9985;BMP180;16737;50.932;6.780;2023-12-07T13:22:45;100269.00;;;8.60
9985;BMP180;16737;50.932;6.780;2023-12-07T13:25:13;100264.00;;;8.50
9985;BMP180;16737;50.932;6.780;2023-12-07T13:27:40;100253.00;;;8.50
9985;BMP180;16737;50.932;6.780;2023-12-07T13:30:09;100219.00;;;8.50
9985;BMP180;16737;50.932;6.780;2023-12-07T13:32:36;100243.00;;;8.50
9985;BMP180;16737;50.932;6.780;2023-12-07T13:35:04;100242.00;;;8.50
9985;BMP180;16737;50.932;6.780;2023-12-07T13:37:32;100236.00;;;8.40
9985;BMP180;16737;50.932;6.780;2023-12-07T13:39:59;100222.00;;;8.40
9985;BMP180;16737;50.932;6.780;2023-12-07T13:42:31;100238.00;;;8.40
9985;BMP180;16737;50.932;6.780;2023-12-07T13:44:59;100228.00;;;8.40
9985;BMP180;16737;50.932;6.780;2023-12-07T13:47:27;100226.00;;;8.30
9985;BMP180;16737;50.932;6.780;2023-12-07T13:50:00;100224.00;;;8.30
9985;BMP180;16737;50.932;6.780;2023-12-07T13:52:29;100224.00;;;8.30
9985;BMP180;16737;50.932;6.780;2023-12-07T13:54:57;100221.00;;;8.20
9985;BMP180;16737;50.932;6.780;2023-12-07T13:57:24;100210.00;;;8.20
9985;BMP180;16737;50.932;6.780;2023-12-07T13:59:54;100211.00;;;8.20
9985;BMP180;16737;50.932;6.780;2023-12-07T14:02:21;100231.00;;;8.20
9985;BMP180;16737;50.932;6.780;2023-12-07T14:04:49;100218.00;;;8.10
9985;BMP180;16737;50.932;6.780;2023-12-07T14:07:18;100218.00;;;8.10
9985;BMP180;16737;50.932;6.780;2023-12-07T14:09:47;100223.00;;;8.10
9985;BMP180;16737;50.932;6.780;2023-12-07T14:12:14;100218.00;;;8.00
9985;BMP180;16737;50.932;6.780;2023-12-07T14:14:42;100222.00;;;8.00
9985;BMP180;16737;50.932;6.780;2023-12-07T14:17:12;100215.00;;;8.00
9985;BMP180;16737;50.932;6.780;2023-12-07T14:19:58;100202.00;;;7.90
9985;BMP180;16737;50.932;6.780;2023-12-07T14:22:26;100198.00;;;7.90
9985;BMP180;16737;50.932;6.780;2023-12-07T14:24:53;100191.00;;;7.80
9985;BMP180;16737;50.932;6.780;2023-12-07T14:27:20;100183.00;;;7.80